sensor_id;sensor_type;location;lat;lon;timestamp;temperature;humidity
16479;DHT22;8350;52.316;10.530;2022-12-24T00:00:19;6.00;99.90
16479;DHT22;8350;52.316;10.530;2022-12-24T00:02:46;6.10;99.90
16479;DHT22;8350;52.316;10.530;2022-12-24T00:05:13;6.10;99.90
16479;DHT22;8350;52.316;10.530;2022-12-24T00:07:43;6.00;99.90
16479;DHT22;8350;52.316;10.530;2022-12-24T00:10:11;6.00;99.90
16479;DHT22;8350;52.316;10.530;2022-12-24T00:12:38;6.00;99.90
16479;DHT22;8350;52.316;10.530;2022-12-24T00:15:08;6.00;99.90
16479;DHT22;8350;52.316;10.530;2022-12-24T00:17:35;6.00;99.90
16479;DHT22;8350;52.316;10.530;2022-12-24T00:20:02;5.90;99.90
16479;DHT22;8350;52.316;10.530;2022-12-24T00:22:29;5.90;99.90
16479;DHT22;8350;52.316;10.530;2022-12-24T00:24:56;5.80;99.90
16479;DHT22;8350;52.316;10.530;2022-12-24T00:27:26;5.80;99.90
16479;DHT22;8350;52.316;10.530;2022-12-24T00:29:53;5.80;99.90
16479;DHT22;8350;52.316;10.530;2022-12-24T00:32:21;5.80;99.90
16479;DHT22;8350;52.316;10.530;2022-12-24T00:34:48;5.80;99.90
16479;DHT22;8350;52.316;10.530;2022-12-24T00:37:15;5.80;99.90
16479;DHT22;8350;52.316;10.530;2022-12-24T00:39:42;5.90;99.90
16479;DHT22;8350;52.316;10.530;2022-12-24T00:42:09;6.00;99.90
16479;DHT22;8350;52.316;10.530;2022-12-24T00:44:37;6.00;99.90
16479;DHT22;8350;52.316;10.530;2022-12-24T00:47:04;5.90;99.90
16479;DHT22;8350;52.316;10.530;2022-12-24T00:49:32;5.80;99.90
16479;DHT22;8350;52.316;10.530;2022-12-24T00:52:01;5.80;99.90
16479;DHT22;8350;52.316;10.530;2022-12-24T00:54:29;5.80;99.90
16479;DHT22;8350;52.316;10.530;2022-12-24T00:56:56;5.80;99.90
16479;DHT22;8350;52.316;10.530;2022-12-24T00:59:23;5.80;99.90
16479;DHT22;8350;52.316;10.530;2022-12-24T01:01:50;5.80;99.90
16479;DHT22;8350;52.316;10.530;2022-12-24T01:04:17;5.80;99.90
16479;DHT22;8350;52.316;10.530;2022-12-24T01:07:03;5.90;99.90
16479;DHT22;8350;52.316;10.530;2022-12-24T01:09:30;6.00;99.90
16479;DHT22;8350;52.316;10.530;2022-12-24T01:11:57;6.00;99.90
16479;DHT22;8350;52.316;10.530;2022-12-24T01:14:23;6.00;99.90
16479;DHT22;8350;52.316;10.530;2022-12-24T01:16:54;6.00;99.90
16479;DHT22;8350;52.316;10.530;2022-12-24T01:19:20;6.00;99.90
16479;DHT22;8350;52.316;10.530;2022-12-24T01:21:47;6.10;99.90
16479;DHT22;8350;52.316;10.530;2022-12-24T01:24:16;6.10;99.90
16479;DHT22;8350;52.316;10.530;2022-12-24T01:26:43;6.10;99.90
16479;DHT22;8350;52.316;10.530;2022-12-24T01:29:11;6.00;99.90
16479;DHT22;8350;52.316;10.530;2022-12-24T01:31:40;6.00;99.90
16479;DHT22;8350;52.316;10.530;2022-12-24T01:34:07;6.00;99.90
16479;DHT22;8350;52.316;10.530;2022-12-24T01:36:35;6.00;99.90
16479;DHT22;8350;52.316;10.530;2022-12-24T01:39:02;6.10;99.90
16479;DHT22;8350;52.316;10.530;2022-12-24T01:41:31;6.10;99.90
16479;DHT22;8350;52.316;10.530;2022-12-24T01:44:21;6.10;99.90
16479;DHT22;8350;52.316;10.530;2022-12-24T01:46:53;6.10;99.90
16479;DHT22;8350;52.316;10.530;2022-12-24T01:49:22;6.00;99.90
16479;DHT22;8350;52.316;10.530;2022-12-24T01:51:52;6.00;99.90
16479;DHT22;8350;52.316;10.530;2022-12-24T01:54:24;6.00;99.90
16479;DHT22;8350;52.316;10.530;2022-12-24T01:56:57;6.00;99.90
16479;DHT22;8350;52.316;10.530;2022-12-24T01:59:25;5.90;99.90
16479;DHT22;8350;52.316;10.530;2022-12-24T02:01:55;5.90;99.90
16479;DHT22;8350;52.316;10.530;2022-12-24T02:04:32;6.00;99.90
16479;DHT22;8350;52.316;10.530;2022-12-24T02:06:59;6.00;99.90
16479;DHT22;8350;52.316;10.530;2022-12-24T02:09:26;6.00;99.90
16479;DHT22;8350;52.316;10.530;2022-12-24T02:11:55;6.10;99.90
16479;DHT22;8350;52.316;10.530;2022-12-24T02:14:23;6.00;99.90
16479;DHT22;8350;52.316;10.530;2022-12-24T02:16:57;6.10;99.90
16479;DHT22;8350;52.316;10.530;2022-12-24T02:22:35;6.10;99.90
16479;DHT22;8350;52.316;10.530;2022-12-24T02:25:21;6.10;99.90
16479;DHT22;8350;52.316;10.530;2022-12-24T02:27:57;6.10;99.90
16479;DHT22;8350;52.316;10.530;2022-12-24T02:30:30;6.10;99.90
16479;DHT22;8350;52.316;10.530;2022-12-24T02:33:11;6.10;99.90
16479;DHT22;8350;52.316;10.530;2022-12-24T02:35:47;6.20;99.90
16479;DHT22;8350;52.316;10.530;2022-12-24T02:38:21;6.10;99.90
16479;DHT22;8350;52.316;10.530;2022-12-24T02:40:52;6.10;99.90
16479;DHT22;8350;52.316;10.530;2022-12-24T02:43:23;6.10;99.90
16479;DHT22;8350;52.316;10.530;2022-12-24T02:45:58;6.10;99.90
16479;DHT22;8350;52.316;10.530;2022-12-24T02:48:27;6.00;99.90
16479;DHT22;8350;52.316;10.530;2022-12-24T02:51:00;6.00;99.90
16479;DHT22;8350;52.316;10.530;2022-12-24T02:53:28;6.00;99.90
16479;DHT22;8350;52.316;10.530;2022-12-24T02:56:10;6.00;99.90
16479;DHT22;8350;52.316;10.530;2022-12-24T02:58:44;6.00;99.90
16479;DHT22;8350;52.316;10.530;2022-12-24T03:01:19;6.10;99.90
16479;DHT22;8350;52.316;10.530;2022-12-24T03:03:59;6.10;99.90
16479;DHT22;8350;52.316;10.530;2022-12-24T03:06:35;6.20;99.90
16479;DHT22;8350;52.316;10.530;2022-12-24T03:09:10;6.20;99.90
16479;DHT22;8350;52.316;10.530;2022-12-24T03:11:43;6.20;99.90
16479;DHT22;8350;52.316;10.530;2022-12-24T03:14:13;6.10;99.90
16479;DHT22;8350;52.316;10.530;2022-12-24T03:16:43;6.20;99.90
16479;DHT22;8350;52.316;10.530;2022-12-24T03:19:11;6.10;99.90
16479;DHT22;8350;52.316;10.530;2022-12-24T03:21:39;6.10;99.90
16479;DHT22;8350;52.316;10.530;2022-12-24T03:24:07;6.10;99.90
16479;DHT22;8350;52.316;10.530;2022-12-24T03:26:35;6.10;99.90
16479;DHT22;8350;52.316;10.530;2022-12-24T03:29:04;6.10;99.90
16479;DHT22;8350;52.316;10.530;2022-12-24T03:31:41;6.10;99.90
16479;DHT22;8350;52.316;10.530;2022-12-24T03:34:09;6.10;99.90
16479;DHT22;8350;52.316;10.530;2022-12-24T03:36:36;6.20;99.90
16479;DHT22;8350;52.316;10.530;2022-12-24T03:39:03;6.20;99.90
16479;DHT22;8350;52.316;10.530;2022-12-24T03:41:30;6.20;99.90
16479;DHT22;8350;52.316;10.530;2022-12-24T03:43:57;6.20;99.90
16479;DHT22;8350;52.316;10.530;2022-12-24T03:46:24;6.20;99.90
16479;DHT22;8350;52.316;10.530;2022-12-24T03:48:53;6.30;99.90
16479;DHT22;8350;52.316;10.530;2022-12-24T03:51:22;6.20;99.90
16479;DHT22;8350;52.316;10.530;2022-12-24T03:53:51;6.30;99.90
16479;DHT22;8350;52.316;10.530;2022-12-24T03:56:18;6.30;99.90
16479;DHT22;8350;52.316;10.530;2022-12-24T03:58:46;6.30;99.90
16479;DHT22;8350;52.316;10.530;2022-12-24T04:01:13;6.30;99.90
16479;DHT22;8350;52.316;10.530;2022-12-24T04:03:40;6.40;99.90
16479;DHT22;8350;52.316;10.530;2022-12-24T04:06:10;6.40;99.90
16479;DHT22;8350;52.316;10.530;2022-12-24T04:08:38;6.50;99.90
16479;DHT22;8350;52.316;10.530;2022-12-24T04:11:07;6.50;99.90
16479;DHT22;8350;52.316;10.530;2022-12-24T04:13:34;6.60;99.90
16479;DHT22;8350;52.316;10.530;2022-12-24T04:16:03;6.70;99.90
16479;DHT22;8350;52.316;10.530;2022-12-24T04:18:30;7.00;99.90
16479;DHT22;8350;52.316;10.530;2022-12-24T04:20:57;7.30;99.90
16479;DHT22;8350;52.316;10.530;2022-12-24T04:23:25;7.50;99.90
16479;DHT22;8350;52.316;10.530;2022-12-24T04:25:52;7.70;99.90
16479;DHT22;8350;52.316;10.530;2022-12-24T04:28:19;7.90;99.90
16479;DHT22;8350;52.316;10.530;2022-12-24T04:30:48;8.00;99.90
16479;DHT22;8350;52.316;10.530;2022-12-24T04:33:18;8.10;99.90
16479;DHT22;8350;52.316;10.530;2022-12-24T04:35:46;8.30;99.90
16479;DHT22;8350;52.316;10.530;2022-12-24T04:38:14;8.30;99.90
16479;DHT22;8350;52.316;10.530;2022-12-24T04:40:45;8.40;99.90
16479;DHT22;8350;52.316;10.530;2022-12-24T04:43:12;8.40;99.90
16479;DHT22;8350;52.316;10.530;2022-12-24T04:45:39;8.50;99.90
16479;DHT22;8350;52.316;10.530;2022-12-24T04:48:06;8.50;99.90
16479;DHT22;8350;52.316;10.530;2022-12-24T04:50:33;8.50;99.90
16479;DHT22;8350;52.316;10.530;2022-12-24T04:53:00;8.60;99.90
16479;DHT22;8350;52.316;10.530;2022-12-24T04:55:27;8.60;99.90
16479;DHT22;8350;52.316;10.530;2022-12-24T04:57:57;8.60;99.90
16479;DHT22;8350;52.316;10.530;2022-12-24T05:00:24;8.70;99.90
16479;DHT22;8350;52.316;10.530;2022-12-24T05:02:51;8.70;99.90
16479;DHT22;8350;52.316;10.530;2022-12-24T05:05:18;8.70;99.90
16479;DHT22;8350;52.316;10.530;2022-12-24T05:07:45;8.70;99.90
16479;DHT22;8350;52.316;10.530;2022-12-24T05:10:12;8.70;99.90
16479;DHT22;8350;52.316;10.530;2022-12-24T05:12:39;8.70;99.90
16479;DHT22;8350;52.316;10.530;2022-12-24T05:15:08;8.80;99.90
16479;DHT22;8350;52.316;10.530;2022-12-24T05:17:35;8.80;99.90
16479;DHT22;8350;52.316;10.530;2022-12-24T05:20:02;8.80;99.90
16479;DHT22;8350;52.316;10.530;2022-12-24T05:22:29;8.80;99.90
16479;DHT22;8350;52.316;10.530;2022-12-24T05:25:19;8.80;99.90
16479;DHT22;8350;52.316;10.530;2022-12-24T05:28:03;8.80;99.90
16479;DHT22;8350;52.316;10.530;2022-12-24T05:30:33;8.80;99.90
16479;DHT22;8350;52.316;10.530;2022-12-24T05:33:00;8.80;99.90
16479;DHT22;8350;52.316;10.530;2022-12-24T05:35:27;8.80;99.90
16479;DHT22;8350;52.316;10.530;2022-12-24T05:37:56;8.80;99.90
16479;DHT22;8350;52.316;10.530;2022-12-24T05:40:25;8.80;99.90
16479;DHT22;8350;52.316;10.530;2022-12-24T05:42:51;8.90;99.90
16479;DHT22;8350;52.316;10.530;2022-12-24T05:45:18;8.90;99.90
16479;DHT22;8350;52.316;10.530;2022-12-24T05:47:48;8.90;99.90
16479;DHT22;8350;52.316;10.530;2022-12-24T05:50:18;8.90;99.90
16479;DHT22;8350;52.316;10.530;2022-12-24T05:52:45;8.90;99.90
16479;DHT22;8350;52.316;10.530;2022-12-24T05:55:12;8.80;99.90
16479;DHT22;8350;52.316;10.530;2022-12-24T05:57:39;8.90;99.90
16479;DHT22;8350;52.316;10.530;2022-12-24T06:00:07;9.00;99.90
16479;DHT22;8350;52.316;10.530;2022-12-24T06:02:35;9.00;99.90
16479;DHT22;8350;52.316;10.530;2022-12-24T06:05:04;9.00;99.90
16479;DHT22;8350;52.316;10.530;2022-12-24T06:07:31;9.00;99.90
16479;DHT22;8350;52.316;10.530;2022-12-24T06:09:58;9.00;99.90
16479;DHT22;8350;52.316;10.530;2022-12-24T06:12:25;9.10;99.90
16479;DHT22;8350;52.316;10.530;2022-12-24T06:14:51;9.10;99.90
16479;DHT22;8350;52.316;10.530;2022-12-24T06:17:18;9.10;99.90
16479;DHT22;8350;52.316;10.530;2022-12-24T06:19:45;9.00;99.90
16479;DHT22;8350;52.316;10.530;2022-12-24T06:22:14;9.00;99.90
16479;DHT22;8350;52.316;10.530;2022-12-24T06:24:40;9.00;99.90
16479;DHT22;8350;52.316;10.530;2022-12-24T06:27:07;9.10;99.90
16479;DHT22;8350;52.316;10.530;2022-12-24T06:29:36;9.10;99.90
16479;DHT22;8350;52.316;10.530;2022-12-24T06:32:05;9.10;99.90
16479;DHT22;8350;52.316;10.530;2022-12-24T06:34:32;9.00;99.90
16479;DHT22;8350;52.316;10.530;2022-12-24T06:36:59;9.00;99.90
16479;DHT22;8350;52.316;10.530;2022-12-24T06:39:28;9.00;99.90
16479;DHT22;8350;52.316;10.530;2022-12-24T06:41:58;9.00;99.90
16479;DHT22;8350;52.316;10.530;2022-12-24T06:44:25;8.90;99.90
16479;DHT22;8350;52.316;10.530;2022-12-24T06:46:52;8.90;99.90
16479;DHT22;8350;52.316;10.530;2022-12-24T06:49:19;8.90;99.90
16479;DHT22;8350;52.316;10.530;2022-12-24T06:51:45;8.90;99.90
16479;DHT22;8350;52.316;10.530;2022-12-24T06:54:12;8.90;99.90
16479;DHT22;8350;52.316;10.530;2022-12-24T06:56:40;8.90;99.90
16479;DHT22;8350;52.316;10.530;2022-12-24T06:59:07;8.90;99.90
16479;DHT22;8350;52.316;10.530;2022-12-24T07:01:34;8.80;99.90
16479;DHT22;8350;52.316;10.530;2022-12-24T07:04:09;8.80;99.90
16479;DHT22;8350;52.316;10.530;2022-12-24T07:06:37;8.80;99.90
16479;DHT22;8350;52.316;10.530;2022-12-24T07:09:08;8.80;99.90
16479;DHT22;8350;52.316;10.530;2022-12-24T07:11:39;8.80;99.90
16479;DHT22;8350;52.316;10.530;2022-12-24T07:17:27;8.80;99.90
16479;DHT22;8350;52.316;10.530;2022-12-24T07:19:54;8.80;99.90
16479;DHT22;8350;52.316;10.530;2022-12-24T07:22:22;8.80;99.90
16479;DHT22;8350;52.316;10.530;2022-12-24T07:24:49;8.80;99.90
16479;DHT22;8350;52.316;10.530;2022-12-24T07:27:20;8.80;99.90
16479;DHT22;8350;52.316;10.530;2022-12-24T07:32:43;8.80;99.90
16479;DHT22;8350;52.316;10.530;2022-12-24T07:35:10;8.80;99.90
16479;DHT22;8350;52.316;10.530;2022-12-24T07:37:38;8.80;99.90
16479;DHT22;8350;52.316;10.530;2022-12-24T07:40:06;8.80;99.90
16479;DHT22;8350;52.316;10.530;2022-12-24T07:42:52;8.80;99.90
16479;DHT22;8350;52.316;10.530;2022-12-24T07:45:19;8.90;99.90
16479;DHT22;8350;52.316;10.530;2022-12-24T07:47:46;8.90;99.90
16479;DHT22;8350;52.316;10.530;2022-12-24T07:50:13;8.90;99.90
16479;DHT22;8350;52.316;10.530;2022-12-24T07:52:40;8.90;99.90
16479;DHT22;8350;52.316;10.530;2022-12-24T07:55:07;8.90;99.90
16479;DHT22;8350;52.316;10.530;2022-12-24T07:57:36;9.00;99.90
16479;DHT22;8350;52.316;10.530;2022-12-24T08:00:07;9.00;99.90
16479;DHT22;8350;52.316;10.530;2022-12-24T08:02:34;9.00;99.90
16479;DHT22;8350;52.316;10.530;2022-12-24T08:05:01;9.00;99.90
16479;DHT22;8350;52.316;10.530;2022-12-24T08:07:29;9.00;99.90
16479;DHT22;8350;52.316;10.530;2022-12-24T08:09:55;9.00;99.90
16479;DHT22;8350;52.316;10.530;2022-12-24T08:12:22;9.00;99.90
16479;DHT22;8350;52.316;10.530;2022-12-24T08:14:49;9.00;99.90
16479;DHT22;8350;52.316;10.530;2022-12-24T08:17:18;9.00;99.90
16479;DHT22;8350;52.316;10.530;2022-12-24T08:19:45;9.00;99.90
16479;DHT22;8350;52.316;10.530;2022-12-24T08:22:12;9.00;99.90
16479;DHT22;8350;52.316;10.530;2022-12-24T08:24:39;9.00;99.90
16479;DHT22;8350;52.316;10.530;2022-12-24T08:27:06;9.00;99.90
16479;DHT22;8350;52.316;10.530;2022-12-24T08:29:32;9.00;99.90
16479;DHT22;8350;52.316;10.530;2022-12-24T08:31:59;9.00;99.90
16479;DHT22;8350;52.316;10.530;2022-12-24T08:34:28;9.00;99.90
16479;DHT22;8350;52.316;10.530;2022-12-24T08:36:55;9.00;99.90
16479;DHT22;8350;52.316;10.530;2022-12-24T08:39:21;9.00;99.90
16479;DHT22;8350;52.316;10.530;2022-12-24T08:41:49;9.00;99.90
16479;DHT22;8350;52.316;10.530;2022-12-24T08:44:16;9.00;99.90
16479;DHT22;8350;52.316;10.530;2022-12-24T08:46:43;9.10;99.90
16479;DHT22;8350;52.316;10.530;2022-12-24T08:49:09;9.10;99.90
16479;DHT22;8350;52.316;10.530;2022-12-24T08:51:38;9.10;99.90
16479;DHT22;8350;52.316;10.530;2022-12-24T08:54:04;9.10;99.90
16479;DHT22;8350;52.316;10.530;2022-12-24T08:56:31;9.10;99.90
16479;DHT22;8350;52.316;10.530;2022-12-24T08:58:58;9.10;99.90
16479;DHT22;8350;52.316;10.530;2022-12-24T09:01:28;9.20;99.90
16479;DHT22;8350;52.316;10.530;2022-12-24T09:03:56;9.20;99.90
16479;DHT22;8350;52.316;10.530;2022-12-24T09:06:23;9.20;99.90
16479;DHT22;8350;52.316;10.530;2022-12-24T09:08:51;9.20;99.90
16479;DHT22;8350;52.316;10.530;2022-12-24T09:11:18;9.30;99.90
16479;DHT22;8350;52.316;10.530;2022-12-24T09:13:47;9.20;99.90
16479;DHT22;8350;52.316;10.530;2022-12-24T09:16:13;9.30;99.90
16479;DHT22;8350;52.316;10.530;2022-12-24T09:18:41;9.30;99.90
16479;DHT22;8350;52.316;10.530;2022-12-24T09:21:09;9.30;99.90
16479;DHT22;8350;52.316;10.530;2022-12-24T09:23:39;9.30;99.90
16479;DHT22;8350;52.316;10.530;2022-12-24T09:26:09;9.30;99.90
16479;DHT22;8350;52.316;10.530;2022-12-24T09:28:37;9.30;99.90
16479;DHT22;8350;52.316;10.530;2022-12-24T09:31:05;9.30;99.90
16479;DHT22;8350;52.316;10.530;2022-12-24T09:33:34;9.30;99.90
16479;DHT22;8350;52.316;10.530;2022-12-24T09:36:02;9.30;99.90
16479;DHT22;8350;52.316;10.530;2022-12-24T09:38:32;9.30;99.90
16479;DHT22;8350;52.316;10.530;2022-12-24T09:41:15;9.30;99.90
16479;DHT22;8350;52.316;10.530;2022-12-24T09:43:53;9.20;99.90
16479;DHT22;8350;52.316;10.530;2022-12-24T09:46:32;9.30;99.90
16479;DHT22;8350;52.316;10.530;2022-12-24T09:49:03;9.30;99.90
16479;DHT22;8350;52.316;10.530;2022-12-24T09:51:35;9.20;99.90
16479;DHT22;8350;52.316;10.530;2022-12-24T09:54:13;9.30;99.90
16479;DHT22;8350;52.316;10.530;2022-12-24T09:56:45;9.30;99.90
16479;DHT22;8350;52.316;10.530;2022-12-24T09:59:24;9.40;99.90
16479;DHT22;8350;52.316;10.530;2022-12-24T10:01:54;9.50;99.90
16479;DHT22;8350;52.316;10.530;2022-12-24T10:04:25;9.50;99.90
16479;DHT22;8350;52.316;10.530;2022-12-24T10:06:56;9.60;99.90
16479;DHT22;8350;52.316;10.530;2022-12-24T10:09:36;9.70;99.90
16479;DHT22;8350;52.316;10.530;2022-12-24T10:12:10;9.70;99.90
16479;DHT22;8350;52.316;10.530;2022-12-24T10:14:49;9.70;99.90
16479;DHT22;8350;52.316;10.530;2022-12-24T10:17:29;9.80;99.90
16479;DHT22;8350;52.316;10.530;2022-12-24T10:20:07;9.80;99.90
16479;DHT22;8350;52.316;10.530;2022-12-24T10:22:46;10.00;99.90
16479;DHT22;8350;52.316;10.530;2022-12-24T10:25:24;10.10;99.90
16479;DHT22;8350;52.316;10.530;2022-12-24T10:27:54;10.10;99.90
16479;DHT22;8350;52.316;10.530;2022-12-24T10:30:26;10.20;99.90
16479;DHT22;8350;52.316;10.530;2022-12-24T10:33:00;10.20;99.90
16479;DHT22;8350;52.316;10.530;2022-12-24T10:35:31;10.10;99.90
16479;DHT22;8350;52.316;10.530;2022-12-24T10:38:01;10.10;99.90
16479;DHT22;8350;52.316;10.530;2022-12-24T10:40:33;10.10;99.90
16479;DHT22;8350;52.316;10.530;2022-12-24T10:43:10;10.20;99.90
16479;DHT22;8350;52.316;10.530;2022-12-24T10:45:41;10.40;99.90
16479;DHT22;8350;52.316;10.530;2022-12-24T10:48:16;10.50;99.90
16479;DHT22;8350;52.316;10.530;2022-12-24T10:50:51;10.50;99.90
16479;DHT22;8350;52.316;10.530;2022-12-24T10:53:23;10.50;99.90
16479;DHT22;8350;52.316;10.530;2022-12-24T10:55:50;10.50;99.90
16479;DHT22;8350;52.316;10.530;2022-12-24T10:58:27;10.50;99.90
16479;DHT22;8350;52.316;10.530;2022-12-24T11:00:54;10.50;99.90
16479;DHT22;8350;52.316;10.530;2022-12-24T11:03:27;10.40;99.90
16479;DHT22;8350;52.316;10.530;2022-12-24T11:06:11;10.40;99.90
16479;DHT22;8350;52.316;10.530;2022-12-24T11:08:40;10.30;99.90
16479;DHT22;8350;52.316;10.530;2022-12-24T11:11:08;10.30;99.90
16479;DHT22;8350;52.316;10.530;2022-12-24T11:13:39;10.40;99.90
16479;DHT22;8350;52.316;10.530;2022-12-24T11:16:14;10.40;99.90
16479;DHT22;8350;52.316;10.530;2022-12-24T11:18:45;10.40;99.90
16479;DHT22;8350;52.316;10.530;2022-12-24T11:21:19;10.30;99.90
16479;DHT22;8350;52.316;10.530;2022-12-24T11:23:49;10.30;99.90
16479;DHT22;8350;52.316;10.530;2022-12-24T11:26:21;10.30;99.90
16479;DHT22;8350;52.316;10.530;2022-12-24T11:29:05;10.30;99.90
16479;DHT22;8350;52.316;10.530;2022-12-24T11:31:37;10.30;99.90
16479;DHT22;8350;52.316;10.530;2022-12-24T11:34:18;10.20;99.90
16479;DHT22;8350;52.316;10.530;2022-12-24T11:36:47;10.20;99.90
16479;DHT22;8350;52.316;10.530;2022-12-24T11:39:18;10.20;99.90
16479;DHT22;8350;52.316;10.530;2022-12-24T11:41:48;10.20;99.90
16479;DHT22;8350;52.316;10.530;2022-12-24T11:44:24;10.20;99.90
16479;DHT22;8350;52.316;10.530;2022-12-24T11:46:51;10.20;99.90
16479;DHT22;8350;52.316;10.530;2022-12-24T11:49:25;10.20;99.90
16479;DHT22;8350;52.316;10.530;2022-12-24T11:52:20;10.20;99.90
16479;DHT22;8350;52.316;10.530;2022-12-24T11:54:56;10.20;99.90
16479;DHT22;8350;52.316;10.530;2022-12-24T11:57:30;10.30;99.90
16479;DHT22;8350;52.316;10.530;2022-12-24T11:59:59;10.30;99.90
16479;DHT22;8350;52.316;10.530;2022-12-24T12:02:33;10.20;99.90
16479;DHT22;8350;52.316;10.530;2022-12-24T12:05:05;10.20;99.90
16479;DHT22;8350;52.316;10.530;2022-12-24T12:07:37;10.20;99.90
16479;DHT22;8350;52.316;10.530;2022-12-24T12:10:09;10.20;99.90
16479;DHT22;8350;52.316;10.530;2022-12-24T12:12:41;10.20;99.90
16479;DHT22;8350;52.316;10.530;2022-12-24T12:15:14;10.10;99.90
16479;DHT22;8350;52.316;10.530;2022-12-24T12:17:45;10.10;99.90
16479;DHT22;8350;52.316;10.530;2022-12-24T12:20:18;10.10;99.90
16479;DHT22;8350;52.316;10.530;2022-12-24T12:22:52;10.00;99.90
16479;DHT22;8350;52.316;10.530;2022-12-24T12:25:25;10.00;99.90
16479;DHT22;8350;52.316;10.530;2022-12-24T12:27:55;10.00;99.90
16479;DHT22;8350;52.316;10.530;2022-12-24T12:30:25;9.90;99.90
16479;DHT22;8350;52.316;10.530;2022-12-24T12:32:57;9.90;99.90
16479;DHT22;8350;52.316;10.530;2022-12-24T12:35:29;9.80;99.90
16479;DHT22;8350;52.316;10.530;2022-12-24T12:37:59;9.80;99.90
16479;DHT22;8350;52.316;10.530;2022-12-24T12:40:47;9.70;99.90
16479;DHT22;8350;52.316;10.530;2022-12-24T12:43:28;9.70;99.90
16479;DHT22;8350;52.316;10.530;2022-12-24T12:46:13;9.70;99.90
16479;DHT22;8350;52.316;10.530;2022-12-24T12:49:16;9.70;99.90
16479;DHT22;8350;52.316;10.530;2022-12-24T12:51:53;9.70;99.90
16479;DHT22;8350;52.316;10.530;2022-12-24T12:54:42;9.60;99.90
16479;DHT22;8350;52.316;10.530;2022-12-24T12:57:19;9.70;99.90
16479;DHT22;8350;52.316;10.530;2022-12-24T12:59:50;9.70;99.90
16479;DHT22;8350;52.316;10.530;2022-12-24T13:02:39;9.60;99.90
16479;DHT22;8350;52.316;10.530;2022-12-24T13:05:26;9.60;99.90
16479;DHT22;8350;52.316;10.530;2022-12-24T13:08:21;9.60;99.90
16479;DHT22;8350;52.316;10.530;2022-12-24T13:11:09;9.60;99.90
16479;DHT22;8350;52.316;10.530;2022-12-24T13:17:20;9.50;99.90
16479;DHT22;8350;52.316;10.530;2022-12-24T13:20:09;9.50;99.90
16479;DHT22;8350;52.316;10.530;2022-12-24T13:22:38;9.50;99.90
16479;DHT22;8350;52.316;10.530;2022-12-24T13:25:17;9.50;99.90
16479;DHT22;8350;52.316;10.530;2022-12-24T13:27:48;9.50;99.90
16479;DHT22;8350;52.316;10.530;2022-12-24T13:30:33;9.50;99.90
16479;DHT22;8350;52.316;10.530;2022-12-24T13:33:00;9.50;99.90
16479;DHT22;8350;52.316;10.530;2022-12-24T13:35:35;9.50;99.90
16479;DHT22;8350;52.316;10.530;2022-12-24T13:44:27;9.30;99.90
16479;DHT22;8350;52.316;10.530;2022-12-24T13:49:48;9.10;99.90
16479;DHT22;8350;52.316;10.530;2022-12-24T13:52:25;9.10;99.90
16479;DHT22;8350;52.316;10.530;2022-12-24T13:55:16;9.10;99.90
16479;DHT22;8350;52.316;10.530;2022-12-24T13:57:50;9.10;99.90
16479;DHT22;8350;52.316;10.530;2022-12-24T14:00:29;9.10;99.90
16479;DHT22;8350;52.316;10.530;2022-12-24T14:03:00;9.00;99.90
16479;DHT22;8350;52.316;10.530;2022-12-24T14:05:32;9.00;99.90
16479;DHT22;8350;52.316;10.530;2022-12-24T14:08:03;9.00;99.90
16479;DHT22;8350;52.316;10.530;2022-12-24T14:10:38;8.90;99.90
16479;DHT22;8350;52.316;10.530;2022-12-24T14:16:27;9.00;99.90
16479;DHT22;8350;52.316;10.530;2022-12-24T14:18:59;9.00;99.90
16479;DHT22;8350;52.316;10.530;2022-12-24T14:21:30;9.00;99.90
16479;DHT22;8350;52.316;10.530;2022-12-24T14:24:02;9.00;99.90
16479;DHT22;8350;52.316;10.530;2022-12-24T14:26:33;9.00;99.90
16479;DHT22;8350;52.316;10.530;2022-12-24T14:29:03;9.00;99.90
16479;DHT22;8350;52.316;10.530;2022-12-24T14:31:32;9.00;99.90
16479;DHT22;8350;52.316;10.530;2022-12-24T14:34:05;9.00;99.90
16479;DHT22;8350;52.316;10.530;2022-12-24T14:36:32;9.00;99.90
16479;DHT22;8350;52.316;10.530;2022-12-24T14:39:01;8.90;99.90
16479;DHT22;8350;52.316;10.530;2022-12-24T14:41:39;8.60;99.90
16479;DHT22;8350;52.316;10.530;2022-12-24T14:44:17;8.40;99.90
16479;DHT22;8350;52.316;10.530;2022-12-24T14:46:51;8.10;99.90
16479;DHT22;8350;52.316;10.530;2022-12-24T14:49:30;8.00;99.90
16479;DHT22;8350;52.316;10.530;2022-12-24T14:52:05;8.00;99.90
16479;DHT22;8350;52.316;10.530;2022-12-24T14:54:37;7.90;99.90
16479;DHT22;8350;52.316;10.530;2022-12-24T14:57:22;7.90;99.90
16479;DHT22;8350;52.316;10.530;2022-12-24T14:59:52;8.00;99.90
16479;DHT22;8350;52.316;10.530;2022-12-24T15:02:23;8.10;99.90
16479;DHT22;8350;52.316;10.530;2022-12-24T15:05:06;8.00;99.90
16479;DHT22;8350;52.316;10.530;2022-12-24T15:07:35;8.00;99.90
16479;DHT22;8350;52.316;10.530;2022-12-24T15:10:07;8.00;99.90
16479;DHT22;8350;52.316;10.530;2022-12-24T15:12:45;8.00;99.90
16479;DHT22;8350;52.316;10.530;2022-12-24T15:15:14;8.00;99.90
16479;DHT22;8350;52.316;10.530;2022-12-24T15:17:41;8.00;99.90
16479;DHT22;8350;52.316;10.530;2022-12-24T15:20:13;8.00;99.90
16479;DHT22;8350;52.316;10.530;2022-12-24T15:22:41;8.00;99.90
16479;DHT22;8350;52.316;10.530;2022-12-24T15:25:20;8.00;99.90
16479;DHT22;8350;52.316;10.530;2022-12-24T15:27:47;8.00;99.90
16479;DHT22;8350;52.316;10.530;2022-12-24T15:30:16;8.00;99.90
16479;DHT22;8350;52.316;10.530;2022-12-24T15:32:43;8.00;99.90
16479;DHT22;8350;52.316;10.530;2022-12-24T15:35:29;8.00;99.90
16479;DHT22;8350;52.316;10.530;2022-12-24T15:37:57;8.00;99.90
16479;DHT22;8350;52.316;10.530;2022-12-24T15:40:26;8.00;99.90
16479;DHT22;8350;52.316;10.530;2022-12-24T15:42:53;8.00;99.90
16479;DHT22;8350;52.316;10.530;2022-12-24T15:45:22;8.00;99.90
16479;DHT22;8350;52.316;10.530;2022-12-24T15:47:51;8.00;99.90
16479;DHT22;8350;52.316;10.530;2022-12-24T15:50:27;8.00;99.90
16479;DHT22;8350;52.316;10.530;2022-12-24T15:52:54;8.00;99.90
16479;DHT22;8350;52.316;10.530;2022-12-24T15:55:27;8.00;99.90
16479;DHT22;8350;52.316;10.530;2022-12-24T15:57:54;8.00;99.90
16479;DHT22;8350;52.316;10.530;2022-12-24T16:00:22;8.00;99.90
16479;DHT22;8350;52.316;10.530;2022-12-24T16:02:52;7.90;99.90
16479;DHT22;8350;52.316;10.530;2022-12-24T16:05:33;7.90;99.90
16479;DHT22;8350;52.316;10.530;2022-12-24T16:08:03;7.90;99.90
16479;DHT22;8350;52.316;10.530;2022-12-24T16:10:37;7.80;99.90
16479;DHT22;8350;52.316;10.530;2022-12-24T16:13:11;7.80;99.90
16479;DHT22;8350;52.316;10.530;2022-12-24T16:15:46;7.80;99.90
16479;DHT22;8350;52.316;10.530;2022-12-24T16:18:25;7.80;99.90
16479;DHT22;8350;52.316;10.530;2022-12-24T16:20:53;7.80;99.90
16479;DHT22;8350;52.316;10.530;2022-12-24T16:23:23;7.80;99.90
16479;DHT22;8350;52.316;10.530;2022-12-24T16:25:52;7.70;99.90
16479;DHT22;8350;52.316;10.530;2022-12-24T16:28:19;7.70;99.90
16479;DHT22;8350;52.316;10.530;2022-12-24T16:30:47;7.70;99.90
16479;DHT22;8350;52.316;10.530;2022-12-24T16:33:15;7.70;99.90